Time;durP1;ratioP1;P1;durP2;ratioP2;P2;SDS_P1;SDS_P2;PMS_P1;PMS_P2;Temp;Humidity;BMP_temperature;BMP_pressure;BME280_temperature;BME280_humidity;BME280_pressure;Samples;Min_cycle;Max_cycle;Signal;HPM_P1;HPM_P2
2021/12/16 00:06:03;;;;;;;29.30;13.15;;;7.00;99.90;;;;;;5112815;28;20075;-78
2021/12/16 00:08:36;;;;;;;25.08;11.43;;;7.00;99.90;;;;;;5112614;28;20070;-78
2021/12/16 00:11:25;;;;;;;26.17;12.25;;;7.00;99.90;;;;;;5112720;28;20521;-78
2021/12/16 00:35:35;;;;;;;25.30;12.23;;;6.80;99.90;;;;;;5111971;28;20047;-78
2021/12/16 00:38:01;;;;;;;31.10;12.73;;;6.70;99.90;;;;;;5112138;28;20035;-78
2021/12/16 00:40:26;;;;;;;31.63;12.45;;;6.80;99.90;;;;;;5116086;28;20505;-80
2021/12/16 00:42:57;;;;;;;31.67;14.60;;;6.70;99.90;;;;;;5119816;28;20520;-81
2021/12/16 00:45:45;;;;;;;26.73;11.77;;;6.70;99.90;;;;;;5121005;28;20043;-80
2021/12/16 00:55:56;;;;;;;25.80;13.38;;;6.80;99.90;;;;;;5111633;28;20145;-78
2021/12/16 00:58:36;;;;;;;29.05;12.88;;;6.70;99.90;;;;;;5094851;28;20092;-78
2021/12/16 01:01:14;;;;;;;30.55;12.40;;;6.70;99.90;;;;;;5112007;28;20051;-78
2021/12/16 01:03:50;;;;;;;35.40;14.18;;;6.80;99.90;;;;;;5112122;28;20052;-78
2021/12/16 01:47:13;;;;;;;37.08;14.15;;;6.70;99.90;;;;;;5118323;28;20055;-78
2021/12/16 01:57:32;;;;;;;36.50;15.20;;;6.90;99.90;;;;;;5112626;28;20096;-78
2021/12/16 02:00:04;;;;;;;29.55;13.10;;;6.90;99.90;;;;;;5112794;28;20047;-78
2021/12/16 02:05:25;;;;;;;32.55;13.77;;;7.00;99.90;;;;;;5112357;28;20100;-78
2021/12/16 02:10:37;;;;;;;36.03;14.65;;;7.20;99.90;;;;;;5113511;28;20389;-78
2021/12/16 02:32:41;;;;;;;28.33;14.10;;;7.20;99.90;;;;;;5113735;28;20055;-78
2021/12/16 02:35:26;;;;;;;33.47;14.15;;;7.20;99.90;;;;;;5112725;28;20043;-78
2021/12/16 02:37:52;;;;;;;43.08;15.15;;;7.30;99.90;;;;;;5112270;28;20514;-78
2021/12/16 02:40:19;;;;;;;35.63;14.60;;;7.20;99.90;;;;;;5112955;28;20043;-78
2021/12/16 02:48:35;;;;;;;35.75;15.73;;;7.40;99.90;;;;;;5112561;28;20047;-78
2021/12/16 02:51:09;;;;;;;35.63;15.15;;;7.40;99.90;;;;;;5099050;28;20126;-78
2021/12/16 02:53:38;;;;;;;27.10;12.77;;;7.40;99.90;;;;;;5116605;28;20048;-78
2021/12/16 02:56:04;;;;;;;35.58;15.23;;;7.40;99.90;;;;;;5116829;28;20050;-78
2021/12/16 02:58:30;;;;;;;29.58;13.27;;;7.40;99.90;;;;;;5116298;28;20044;-78
2021/12/16 03:01:03;;;;;;;33.22;14.65;;;7.40;99.90;;;;;;5099609;28;20055;-78
2021/12/16 03:03:29;;;;;;;41.35;16.48;;;7.50;99.90;;;;;;5116463;28;20039;-78
2021/12/16 03:05:56;;;;;;;28.65;14.20;;;7.50;99.90;;;;;;5116310;28;20051;-78
2021/12/16 03:08:23;;;;;;;41.30;14.43;;;7.50;99.90;;;;;;5117059;28;20504;-78
2021/12/16 03:11:04;;;;;;;28.40;14.13;;;7.40;99.90;;;;;;5118790;28;20095;-80
2021/12/16 03:13:36;;;;;;;32.35;14.30;;;7.50;99.90;;;;;;5116368;28;20048;-78
2021/12/16 03:16:21;;;;;;;;;;;7.50;99.90;;;;;;5117167;28;20504;-78
2021/12/16 03:19:10;;;;;;;33.85;14.55;;;7.50;99.90;;;;;;5116512;28;19922;-78
2021/12/16 03:21:43;;;;;;;32.13;13.93;;;7.60;99.90;;;;;;5116647;28;20043;-78
2021/12/16 03:30:04;;;;;;;37.90;14.93;;;7.60;99.90;;;;;;5115715;28;20051;-78
2021/12/16 03:32:55;;;;;;;24.67;12.73;;;7.60;99.90;;;;;;5116146;28;20391;-78
2021/12/16 03:35:34;;;;;;;35.58;14.00;;;7.60;99.90;;;;;;5116067;28;20035;-78
2021/12/16 03:38:06;;;;;;;31.30;14.48;;;7.60;99.90;;;;;;5115767;28;20122;-78
2021/12/16 03:40:34;;;;;;;28.23;13.52;;;7.60;99.90;;;;;;5116288;28;20035;-78
2021/12/16 03:43:03;;;;;;;32.40;14.93;;;7.70;99.90;;;;;;5116699;28;20155;-78
2021/12/16 03:48:36;;;;;;;28.55;13.75;;;7.60;99.90;;;;;;5117243;28;20522;-78
2021/12/16 03:51:08;;;;;;;28.85;13.50;;;7.70;99.90;;;;;;5115762;28;20048;-78
2021/12/16 03:53:35;;;;;;;30.60;13.90;;;7.60;99.90;;;;;;5114991;28;20089;-78
2021/12/16 03:56:01;;;;;;;27.77;13.13;;;7.70;99.90;;;;;;5115103;28;20059;-78
2021/12/16 03:58:27;;;;;;;34.40;14.23;;;7.70;99.90;;;;;;5114529;28;20044;-78
2021/12/16 04:00:57;;;;;;;30.25;14.40;;;7.70;99.90;;;;;;5114829;28;20039;-78
2021/12/16 04:03:23;;;;;;;30.67;13.43;;;7.60;99.90;;;;;;5115246;28;20450;-78
2021/12/16 04:05:49;;;;;;;30.40;15.25;;;7.60;99.90;;;;;;5114961;28;20111;-78
2021/12/16 04:08:15;;;;;;;29.15;13.20;;;7.70;99.90;;;;;;5114264;28;20109;-78
2021/12/16 04:10:52;;;;;;;30.38;13.65;;;7.60;99.90;;;;;;5115224;28;20035;-78
2021/12/16 04:13:19;;;;;;;30.52;13.65;;;7.70;99.90;;;;;;5115160;28;20032;-78
2021/12/16 04:15:46;;;;;;;34.58;14.43;;;7.70;99.90;;;;;;5114151;28;20051;-78
2021/12/16 04:18:12;;;;;;;26.92;13.57;;;7.70;99.90;;;;;;5113737;28;20083;-78
2021/12/16 04:20:38;;;;;;;53.80;15.70;;;7.70;99.90;;;;;;5114060;28;20036;-78
2021/12/16 04:23:06;;;;;;;28.92;14.38;;;7.70;99.90;;;;;;5115163;28;20395;-78
2021/12/16 04:25:37;;;;;;;34.13;13.52;;;7.60;99.90;;;;;;5114812;28;20047;-78
2021/12/16 04:28:07;;;;;;;32.08;14.77;;;7.70;99.90;;;;;;5096911;28;20095;-78
2021/12/16 04:30:33;;;;;;;31.40;14.10;;;7.70;99.90;;;;;;5114101;28;20036;-78
2021/12/16 04:32:59;;;;;;;34.75;13.80;;;7.70;99.90;;;;;;5098035;28;20042;-78
2021/12/16 04:35:25;;;;;;;35.30;16.55;;;7.70;99.90;;;;;;5114546;28;20040;-78
2021/12/16 04:37:53;;;;;;;31.80;13.70;;;7.70;99.90;;;;;;5097448;28;20122;-78
2021/12/16 04:40:19;;;;;;;31.67;13.57;;;7.80;99.90;;;;;;5114139;28;20055;-78
2021/12/16 04:42:46;;;;;;;31.95;14.50;;;7.80;99.90;;;;;;5097809;28;20035;-78
2021/12/16 04:45:16;;;;;;;29.75;14.70;;;7.80;99.90;;;;;;5115320;28;20050;-78
2021/12/16 04:47:42;;;;;;;33.63;13.27;;;7.80;99.90;;;;;;5114225;28;20047;-78
2021/12/16 04:50:09;;;;;;;30.20;13.93;;;7.80;99.90;;;;;;5114742;28;20065;-78
2021/12/16 04:52:36;;;;;;;33.03;14.15;;;7.80;99.90;;;;;;5115060;28;20040;-78
2021/12/16 04:55:05;;;;;;;35.72;14.02;;;7.80;99.90;;;;;;5114600;28;20044;-78
2021/12/16 04:57:31;;;;;;;37.25;14.43;;;7.80;99.90;;;;;;5115508;28;20100;-78
2021/12/16 04:59:57;;;;;;;34.90;14.65;;;7.80;99.90;;;;;;5114487;28;20040;-78
2021/12/16 05:02:25;;;;;;;32.90;13.60;;;7.80;99.90;;;;;;5115404;28;20043;-78
2021/12/16 05:04:51;;;;;;;34.40;14.80;;;7.80;99.90;;;;;;5115690;28;20571;-78
2021/12/16 05:07:18;;;;;;;30.65;13.70;;;7.80;99.90;;;;;;5115015;28;20067;-78
2021/12/16 05:10:18;;;;;;;26.40;14.38;;;7.80;99.90;;;;;;5114951;28;20047;-78
2021/12/16 05:12:42;;;;;;;36.97;15.27;;;7.80;99.90;;;;;;5112860;28;20075;-78
2021/12/16 05:15:12;;;;;;;35.65;15.02;;;7.80;99.90;;;;;;5115322;28;20055;-78
2021/12/16 05:17:48;;;;;;;28.90;13.60;;;7.80;99.90;;;;;;5097866;28;20043;-78
2021/12/16 05:20:25;;;;;;;31.85;14.25;;;7.80;99.90;;;;;;5114549;28;20067;-78
2021/12/16 05:28:24;;;;;;;33.08;14.27;;;7.80;99.90;;;;;;5114150;28;20056;-78
2021/12/16 05:30:50;;;;;;;34.30;15.15;;;7.80;99.90;;;;;;5115333;28;20432;-78
2021/12/16 05:33:17;;;;;;;29.15;15.02;;;7.80;99.90;;;;;;5115106;28;20046;-79
2021/12/16 05:35:43;;;;;;;31.23;14.88;;;7.80;99.90;;;;;;5116112;28;20518;-79
2021/12/16 05:38:09;;;;;;;36.30;15.63;;;7.80;99.90;;;;;;5115622;28;20036;-79
2021/12/16 05:40:36;;;;;;;31.45;14.02;;;7.80;99.90;;;;;;5115648;28;20039;-79
2021/12/16 05:43:06;;;;;;;31.95;14.25;;;7.80;99.90;;;;;;5116506;28;20035;-79
2021/12/16 05:45:33;;;;;;;30.60;14.00;;;7.80;99.90;;;;;;5116501;28;20063;-79
2021/12/16 05:48:01;;;;;;;27.80;13.43;;;7.80;99.90;;;;;;5116378;28;20061;-79
2021/12/16 05:50:31;;;;;;;28.45;13.75;;;7.80;99.90;;;;;;5117201;28;20091;-79
2021/12/16 05:52:57;;;;;;;36.55;15.30;;;7.70;99.90;;;;;;5116959;28;20048;-79
2021/12/16 05:55:22;;;;;;;33.47;14.52;;;7.70;99.90;;;;;;5114669;28;20043;-78
2021/12/16 05:57:49;;;;;;;29.67;13.82;;;7.80;99.90;;;;;;5113011;28;20110;-78
2021/12/16 06:00:24;;;;;;;29.38;14.07;;;7.70;99.90;;;;;;5098053;28;20047;-78
2021/12/16 06:02:50;;;;;;;40.70;16.58;;;7.70;99.90;;;;;;5099290;28;20040;-79
2021/12/16 06:05:17;;;;;;;31.77;14.30;;;7.70;99.90;;;;;;5117005;28;20445;-79
2021/12/16 06:07:42;;;;;;;31.50;15.00;;;7.80;99.90;;;;;;5116446;28;20035;-79
2021/12/16 06:10:35;;;;;;;33.25;14.98;;;7.80;99.90;;;;;;5116034;28;20046;-79
2021/12/16 06:12:58;;;;;;;27.45;14.52;;;7.80;99.90;;;;;;5116074;28;20046;-78
2021/12/16 06:15:56;;;;;;;34.15;14.60;;;7.80;99.90;;;;;;5116612;28;20039;-78
2021/12/16 06:29:21;;;;;;;38.97;15.77;;;7.90;99.90;;;;;;5121425;28;20472;-81
2021/12/16 06:31:46;;;;;;;28.02;13.48;;;7.80;99.90;;;;;;5122044;28;20035;-81
2021/12/16 06:34:12;;;;;;;44.72;20.65;;;7.90;99.90;;;;;;5121922;28;20065;-81
2021/12/16 06:36:38;;;;;;;41.42;18.90;;;7.90;99.90;;;;;;5121514;28;20039;-81
2021/12/16 06:39:04;;;;;;;32.70;16.23;;;7.90;99.90;;;;;;5122603;28;20044;-81
2021/12/16 06:41:34;;;;;;;35.20;15.82;;;7.90;99.90;;;;;;5121906;28;20039;-81
2021/12/16 06:44:05;;;;;;;29.70;13.93;;;7.90;99.90;;;;;;5122162;28;20075;-81
2021/12/16 06:46:34;;;;;;;36.55;14.55;;;7.90;99.90;;;;;;5120973;28;20118;-81
2021/12/16 06:49:02;;;;;;;34.83;15.07;;;7.90;99.90;;;;;;5120666;28;20039;-81
2021/12/16 06:51:39;;;;;;;29.90;13.95;;;7.90;99.90;;;;;;5119097;28;20054;-79
2021/12/16 06:54:11;;;;;;;38.50;14.80;;;7.90;99.90;;;;;;5119658;28;20082;-79
2021/12/16 06:56:54;;;;;;;33.05;14.25;;;7.90;99.90;;;;;;5116704;28;20036;-79
2021/12/16 06:59:24;;;;;;;37.70;14.52;;;7.90;99.90;;;;;;5118211;28;20058;-79
2021/12/16 07:04:26;;;;;;;29.40;13.85;;;7.90;99.90;;;;;;5118198;28;20051;-79
2021/12/16 07:06:52;;;;;;;26.90;13.93;;;8.00;99.90;;;;;;5118518;28;20039;-79
2021/12/16 07:09:18;;;;;;;35.33;15.60;;;7.90;99.90;;;;;;5118049;28;20048;-79
2021/12/16 07:11:52;;;;;;;30.90;13.98;;;7.80;99.90;;;;;;5117909;28;20047;-79
2021/12/16 07:14:19;;;;;;;27.33;13.75;;;7.80;99.90;;;;;;5100642;28;20039;-79
2021/12/16 07:16:50;;;;;;;28.27;13.57;;;7.70;99.90;;;;;;5117554;28;20047;-79
2021/12/16 07:19:16;;;;;;;30.15;13.45;;;7.60;99.90;;;;;;5116443;28;20043;-79
2021/12/16 07:21:43;;;;;;;32.92;13.23;;;7.50;99.90;;;;;;5114061;28;20035;-79
2021/12/16 07:24:17;;;;;;;28.02;12.55;;;7.40;99.90;;;;;;5113931;28;20517;-79
2021/12/16 07:26:43;;;;;;;31.13;14.25;;;7.40;99.90;;;;;;5113570;28;20063;-79
2021/12/16 07:29:10;;;;;;;30.05;13.05;;;7.30;99.90;;;;;;5113815;28;20047;-79
2021/12/16 07:31:37;;;;;;;33.92;16.67;;;7.20;99.90;;;;;;5113540;28;20537;-79
2021/12/16 07:34:03;;;;;;;35.78;13.88;;;7.20;99.90;;;;;;5096911;28;20027;-79
2021/12/16 07:36:30;;;;;;;34.53;14.30;;;7.20;99.90;;;;;;5113281;28;20078;-79
2021/12/16 07:38:56;;;;;;;34.85;13.75;;;7.10;99.90;;;;;;5113580;28;20082;-80
2021/12/16 07:41:26;;;;;;;28.75;14.75;;;7.10;99.90;;;;;;5114825;28;20051;-79
2021/12/16 07:43:57;;;;;;;30.33;14.10;;;7.10;99.90;;;;;;5113649;28;20115;-80
2021/12/16 07:46:22;;;;;;;33.80;13.93;;;7.00;99.90;;;;;;5113475;28;20133;-79
2021/12/16 07:48:48;;;;;;;31.48;14.35;;;7.10;99.90;;;;;;5113373;28;20075;-80
2021/12/16 07:51:14;;;;;;;36.55;15.60;;;7.00;99.90;;;;;;5113301;28;20047;-79
2021/12/16 07:53:40;;;;;;;31.45;14.77;;;7.00;99.90;;;;;;5113184;28;20487;-78
2021/12/16 07:56:07;;;;;;;40.72;16.40;;;7.00;99.90;;;;;;5115109;28;20035;-80
2021/12/16 07:58:33;;;;;;;35.88;15.73;;;7.10;99.90;;;;;;5117447;28;20040;-80
2021/12/16 08:01:00;;;;;;;39.17;15.68;;;7.00;99.90;;;;;;5113501;28;20518;-79
2021/12/16 08:03:26;;;;;;;41.97;17.05;;;7.10;99.90;;;;;;5113500;28;20054;-79
2021/12/16 08:05:55;;;;;;;39.63;15.95;;;7.20;99.90;;;;;;5115183;28;20084;-79
2021/12/16 08:08:22;;;;;;;52.05;16.92;;;7.20;99.90;;;;;;5113985;28;20044;-79
2021/12/16 08:10:49;;;;;;;51.30;16.67;;;7.20;99.90;;;;;;5114147;28;20039;-79
2021/12/16 08:13:16;;;;;;;57.97;18.08;;;7.20;99.90;;;;;;5113728;28;20046;-80
2021/12/16 08:15:42;;;;;;;51.42;16.42;;;7.20;99.90;;;;;;5113522;28;20039;-79
2021/12/16 08:18:08;;;;;;;99.60;21.42;;;7.20;99.90;;;;;;5112787;28;20039;-79
2021/12/16 08:20:33;;;;;;;60.47;18.00;;;7.30;99.90;;;;;;5113675;28;20082;-79
2021/12/16 08:22:59;;;;;;;120.00;23.17;;;7.20;99.90;;;;;;5113424;28;20071;-78
2021/12/16 08:25:28;;;;;;;61.42;17.42;;;7.30;99.90;;;;;;5114250;28;20047;-79
2021/12/16 08:27:55;;;;;;;63.33;17.90;;;7.30;99.90;;;;;;5095498;28;20380;-79
2021/12/16 08:30:23;;;;;;;70.25;18.67;;;7.30;99.90;;;;;;5112357;28;20059;-78
2021/12/16 08:32:49;;;;;;;43.13;16.25;;;7.20;99.90;;;;;;5115336;28;20488;-79
2021/12/16 08:35:16;;;;;;;52.00;16.50;;;7.30;99.90;;;;;;5116970;28;20043;-79
2021/12/16 08:37:42;;;;;;;51.60;15.13;;;7.30;99.90;;;;;;5098739;28;20043;-80
2021/12/16 08:40:12;;;;;;;61.83;15.65;;;7.30;99.90;;;;;;5113777;28;20443;-79
2021/12/16 08:42:38;;;;;;;66.20;16.98;;;7.30;99.90;;;;;;5112241;28;20518;-78
2021/12/16 08:45:06;;;;;;;65.07;16.35;;;7.30;99.90;;;;;;5094870;28;20048;-80
2021/12/16 08:47:32;;;;;;;63.38;16.10;;;7.30;99.90;;;;;;5112807;28;20043;-78
2021/12/16 08:49:58;;;;;;;66.43;16.25;;;7.30;99.90;;;;;;5111861;28;20092;-79
2021/12/16 08:52:24;;;;;;;101.72;17.92;;;7.30;99.90;;;;;;5112292;28;20084;-79
2021/12/16 08:54:50;;;;;;;127.18;20.52;;;7.30;99.90;;;;;;5112281;28;20040;-79
2021/12/16 08:57:16;;;;;;;68.53;17.13;;;7.30;99.90;;;;;;5112119;28;20069;-79
2021/12/16 08:59:43;;;;;;;76.72;16.27;;;7.30;99.90;;;;;;5111753;28;20043;-79
2021/12/16 09:02:10;;;;;;;57.92;16.00;;;7.40;99.90;;;;;;5112066;28;20376;-79
2021/12/16 09:04:37;;;;;;;59.20;14.23;;;7.30;99.90;;;;;;5111973;28;20039;-79
2021/12/16 09:07:07;;;;;;;34.35;13.40;;;7.40;99.90;;;;;;5112020;28;20058;-79
2021/12/16 09:09:35;;;;;;;59.40;15.68;;;7.40;99.90;;;;;;5111783;28;20499;-80
2021/12/16 09:12:14;;;;;;;65.97;16.23;;;7.50;99.90;;;;;;5111673;28;20088;-80
2021/12/16 09:14:42;;;;;;;57.85;13.38;;;7.50;99.90;;;;;;5111973;28;20496;-80
2021/12/16 09:17:12;;;;;;;48.35;13.85;;;7.50;99.90;;;;;;5111472;28;20043;-79
2021/12/16 09:19:41;;;;;;;37.78;13.38;;;7.60;99.90;;;;;;5111621;28;20047;-79
2021/12/16 09:22:07;;;;;;;47.72;12.70;;;7.60;99.90;;;;;;5111481;28;20048;-79
2021/12/16 09:24:33;;;;;;;32.80;11.40;;;7.60;99.90;;;;;;5111856;28;20444;-79
2021/12/16 09:26:58;;;;;;;50.92;12.82;;;7.70;99.90;;;;;;5111243;28;20130;-80
2021/12/16 09:29:24;;;;;;;43.72;12.82;;;7.60;99.90;;;;;;5094610;28;20192;-79
2021/12/16 09:31:49;;;;;;;32.65;11.52;;;7.60;99.90;;;;;;5094682;28;20067;-79
2021/12/16 09:34:15;;;;;;;27.27;11.02;;;7.60;99.90;;;;;;5094596;28;20035;-79
2021/12/16 09:36:43;;;;;;;30.27;11.98;;;7.60;99.90;;;;;;5111466;28;20091;-79
2021/12/16 09:39:13;;;;;;;45.78;13.75;;;7.70;99.90;;;;;;5112063;28;20071;-79
2021/12/16 09:41:42;;;;;;;25.23;11.75;;;7.60;99.90;;;;;;5111829;28;20046;-79
2021/12/16 09:44:08;;;;;;;25.48;10.35;;;7.60;99.90;;;;;;5111548;28;20050;-79
2021/12/16 09:46:35;;;;;;;32.70;10.95;;;7.60;99.90;;;;;;5111055;28;20550;-79
2021/12/16 09:49:01;;;;;;;25.38;11.35;;;7.60;99.90;;;;;;5110987;28;20192;-79
2021/12/16 09:51:30;;;;;;;31.25;10.95;;;7.60;99.90;;;;;;5111528;28;20156;-79
2021/12/16 09:54:04;;;;;;;19.92;10.70;;;7.70;99.90;;;;;;5111227;28;20514;-79
2021/12/16 09:56:30;;;;;;;25.33;11.55;;;7.60;99.90;;;;;;5111025;28;20043;-79
2021/12/16 09:58:57;;;;;;;39.85;11.75;;;7.70;99.90;;;;;;5111332;28;20044;-79
2021/12/16 10:01:24;;;;;;;27.67;10.63;;;7.70;99.90;;;;;;5113980;28;20484;-79
2021/12/16 10:03:53;;;;;;;29.13;11.27;;;7.70;99.90;;;;;;5115546;28;20399;-79
2021/12/16 10:06:19;;;;;;;21.08;9.70;;;7.70;99.90;;;;;;5114997;28;20039;-79
2021/12/16 10:08:45;;;;;;;21.17;10.43;;;7.70;99.90;;;;;;5115052;28;20114;-79
2021/12/16 10:11:11;;;;;;;23.77;10.55;;;7.70;99.90;;;;;;5115302;28;20039;-79
2021/12/16 10:13:48;;;;;;;22.63;11.55;;;7.80;99.90;;;;;;5116668;28;20032;-79
2021/12/16 10:18:59;;;;;;;23.67;10.68;;;7.80;99.90;;;;;;5115080;28;20498;-79
2021/12/16 10:21:25;;;;;;;24.65;10.77;;;7.90;99.90;;;;;;5114995;28;20044;-79
2021/12/16 10:23:51;;;;;;;21.25;10.38;;;7.90;99.90;;;;;;5115458;28;20054;-79
2021/12/16 10:26:20;;;;;;;19.38;9.32;;;7.90;99.90;;;;;;5114658;28;20135;-79
2021/12/16 10:28:49;;;;;;;21.92;9.80;;;7.90;99.90;;;;;;5114760;28;20092;-79
2021/12/16 10:31:26;;;;;;;24.35;11.25;;;8.00;99.90;;;;;;5116031;28;20114;-79
2021/12/16 10:33:57;;;;;;;34.78;11.43;;;8.00;99.90;;;;;;5114977;28;20035;-79
2021/12/16 10:36:37;;;;;;;25.35;11.38;;;8.00;99.90;;;;;;5097603;28;20336;-79
2021/12/16 10:39:25;;;;;;;22.25;10.20;;;8.00;99.90;;;;;;5114788;28;20229;-79
2021/12/16 10:41:58;;;;;;;27.58;11.10;;;8.10;99.90;;;;;;5114638;28;20036;-79
2021/12/16 10:44:32;;;;;;;21.80;10.75;;;8.10;99.90;;;;;;5114760;28;20054;-79
2021/12/16 10:47:10;;;;;;;26.05;11.98;;;8.10;99.90;;;;;;5097727;28;20046;-79
2021/12/16 10:49:39;;;;;;;27.90;12.13;;;8.20;99.90;;;;;;5114877;28;20044;-79
2021/12/16 10:52:12;;;;;;;25.00;10.80;;;8.30;99.90;;;;;;5114836;28;20039;-79
2021/12/16 10:54:46;;;;;;;25.65;11.60;;;8.30;99.90;;;;;;5115170;28;20126;-79
2021/12/16 10:57:16;;;;;;;20.52;11.00;;;8.40;99.90;;;;;;5115335;28;20046;-79
2021/12/16 10:59:46;;;;;;;26.45;10.07;;;8.40;99.90;;;;;;5098020;28;20051;-79
2021/12/16 11:02:19;;;;;;;28.10;10.70;;;8.40;99.90;;;;;;5115106;28;20040;-79
2021/12/16 11:05:02;;;;;;;21.75;11.18;;;8.50;99.90;;;;;;5115236;28;20036;-79
2021/12/16 11:07:44;;;;;;;24.52;11.32;;;8.50;99.90;;;;;;5098021;28;20096;-79
2021/12/16 11:10:31;;;;;;;19.67;10.38;;;8.60;99.90;;;;;;5115170;28;20080;-78
2021/12/16 11:13:04;;;;;;;24.73;10.82;;;8.70;99.90;;;;;;5119580;28;20084;-82
2021/12/16 11:15:30;;;;;;;22.40;10.90;;;8.80;99.90;;;;;;5105845;28;20035;-82
2021/12/16 11:18:05;;;;;;;21.58;10.95;;;8.80;99.90;;;;;;5122576;28;20067;-82
2021/12/16 11:20:47;;;;;;;21.67;10.77;;;8.80;99.90;;;;;;5123020;28;20036;-82
2021/12/16 11:23:17;;;;;;;24.30;10.88;;;8.80;99.90;;;;;;5105530;28;20046;-82
2021/12/16 11:25:55;;;;;;;20.23;9.93;;;8.80;99.90;;;;;;5106114;28;20100;-82
2021/12/16 11:28:28;;;;;;;23.90;11.23;;;8.80;99.90;;;;;;5123094;28;20495;-82
2021/12/16 11:31:01;;;;;;;21.88;10.70;;;8.90;99.90;;;;;;5105393;28;20048;-82
2021/12/16 11:33:34;;;;;;;21.95;10.90;;;8.90;99.90;;;;;;5106107;28;20051;-82
2021/12/16 11:36:14;;;;;;;20.25;10.65;;;9.00;99.90;;;;;;5104344;28;20035;-82
2021/12/16 11:38:42;;;;;;;22.95;10.77;;;9.00;99.90;;;;;;5122060;28;20096;-82
2021/12/16 11:41:13;;;;;;;24.52;11.85;;;9.00;99.90;;;;;;5105127;28;20070;-82
2021/12/16 11:43:56;;;;;;;22.42;10.52;;;9.00;99.90;;;;;;5118815;28;20043;-80
2021/12/16 11:46:39;;;;;;;24.48;11.23;;;8.90;99.90;;;;;;5118023;28;20047;-80
2021/12/16 11:49:11;;;;;;;31.33;12.57;;;8.90;99.90;;;;;;5104004;28;20042;-80
2021/12/16 11:51:40;;;;;;;26.55;11.90;;;8.90;99.90;;;;;;5103082;28;20082;-81
2021/12/16 11:54:16;;;;;;;24.48;12.05;;;8.90;99.90;;;;;;5120757;28;20036;-80
2021/12/16 11:56:59;;;;;;;24.92;11.60;;;8.90;99.90;;;;;;5102555;28;20122;-80
2021/12/16 11:59:51;;;;;;;24.65;10.90;;;8.80;99.90;;;;;;5120346;28;20043;-80
2021/12/16 12:02:33;;;;;;;29.20;11.25;;;8.90;99.90;;;;;;5120085;28;20043;-80
2021/12/16 12:05:21;;;;;;;30.63;11.18;;;8.90;99.90;;;;;;5120080;28;20058;-81
2021/12/16 12:07:50;;;;;;;22.70;10.38;;;8.80;99.90;;;;;;5120590;28;20097;-80
2021/12/16 12:10:22;;;;;;;23.13;11.10;;;8.90;99.90;;;;;;5116636;28;20044;-79
2021/12/16 12:12:49;;;;;;;25.00;10.65;;;8.90;99.90;;;;;;5095866;28;20122;-79
2021/12/16 12:15:17;;;;;;;22.75;11.00;;;8.90;99.90;;;;;;5112645;28;20123;-79
2021/12/16 12:17:51;;;;;;;24.75;10.45;;;8.90;99.90;;;;;;5112926;28;20075;-80
2021/12/16 12:20:24;;;;;;;25.73;11.57;;;8.90;99.90;;;;;;5112754;28;20523;-79
2021/12/16 12:22:51;;;;;;;26.30;11.68;;;8.90;99.90;;;;;;5111758;28;20048;-79
2021/12/16 12:25:17;;;;;;;29.08;11.38;;;8.90;99.90;;;;;;5095649;28;20060;-79
2021/12/16 12:27:42;;;;;;;27.17;10.55;;;8.90;99.90;;;;;;5112629;28;20051;-80
2021/12/16 12:30:09;;;;;;;26.98;11.27;;;8.90;99.90;;;;;;5113950;28;20047;-80
2021/12/16 12:32:41;;;;;;;26.17;11.50;;;8.90;99.90;;;;;;5115233;28;20495;-80
2021/12/16 12:35:19;;;;;;;20.60;10.63;;;8.90;99.90;;;;;;5099115;28;20042;-80
2021/12/16 12:37:48;;;;;;;22.88;10.52;;;8.80;99.90;;;;;;5112749;28;20515;-79
2021/12/16 12:40:34;;;;;;;25.38;10.43;;;8.80;99.90;;;;;;5112279;28;20057;-80
2021/12/16 12:42:59;;;;;;;22.13;9.88;;;8.80;99.90;;;;;;5112719;28;20507;-79
2021/12/16 12:45:29;;;;;;;25.42;10.68;;;8.80;99.90;;;;;;5112022;28;20093;-79
2021/12/16 12:47:58;;;;;;;27.27;10.27;;;8.70;99.90;;;;;;5111919;28;20123;-79
2021/12/16 12:50:27;;;;;;;18.52;9.35;;;8.70;99.90;;;;;;5111900;28;20531;-79
2021/12/16 12:52:55;;;;;;;24.20;10.77;;;8.60;99.90;;;;;;5112380;28;20074;-79
2021/12/16 12:55:32;;;;;;;26.02;10.77;;;8.60;99.90;;;;;;5111826;28;20042;-79
2021/12/16 12:58:04;;;;;;;25.25;10.85;;;8.70;99.90;;;;;;5113218;28;20077;-83
2021/12/16 13:00:36;;;;;;;29.02;11.60;;;8.70;99.90;;;;;;5097137;28;20043;-83
2021/12/16 13:03:11;;;;;;;24.65;11.10;;;8.60;99.90;;;;;;5095183;28;20123;-77
2021/12/16 13:05:38;;;;;;;23.45;11.05;;;8.60;99.90;;;;;;5111564;28;20051;-77
2021/12/16 13:08:10;;;;;;;28.50;10.52;;;8.60;99.90;;;;;;5111858;28;20047;-77
2021/12/16 13:10:46;;;;;;;23.65;10.55;;;8.60;99.90;;;;;;5111800;28;20089;-77
2021/12/16 13:15:57;;;;;;;26.23;9.57;;;8.60;99.90;;;;;;5111771;28;20047;-77
2021/12/16 13:26:44;;;;;;;23.63;10.27;;;8.50;99.90;;;;;;5112008;28;20070;-77
2021/12/16 13:29:22;;;;;;;23.40;10.48;;;8.50;99.90;;;;;;5111833;28;20407;-77
2021/12/16 13:32:18;;;;;;;30.08;11.52;;;8.60;99.90;;;;;;5111830;28;20096;-77
2021/12/16 13:35:04;;;;;;;23.85;11.00;;;8.50;99.90;;;;;;5111476;28;20048;-77
2021/12/16 13:37:32;;;;;;;24.10;9.68;;;8.50;99.90;;;;;;5112446;28;20451;-77
2021/12/16 13:40:05;;;;;;;18.80;10.45;;;8.50;99.90;;;;;;5111753;28;20085;-77
2021/12/16 13:42:53;;;;;;;25.25;10.73;;;8.50;99.90;;;;;;5094167;28;20044;-75
2021/12/16 13:45:26;;;;;;;25.75;10.70;;;8.50;99.90;;;;;;5110941;28;20036;-75
2021/12/16 14:05:28;;;;;;;33.22;9.02;;;8.30;99.90;;;;;;5110642;28;20051;-77
2021/12/16 14:07:58;;;;;;;;;;;8.20;99.90;;;;;;5111327;28;20081;-77
2021/12/16 14:10:44;;;;;;;17.50;8.60;;;8.20;99.90;;;;;;5110679;28;20006;-77
2021/12/16 14:16:42;;;;;;;17.33;9.00;;;8.10;99.90;;;;;;5110721;28;20054;-77
2021/12/16 14:25:11;;;;;;;29.95;7.55;;;8.10;99.90;;;;;;5110775;28;20062;-77
2021/12/16 14:34:12;;;;;;;35.50;8.13;;;7.90;99.90;;;;;;5110792;28;20051;-77
2021/12/16 14:36:29;;;;;;;19.08;7.38;;;7.90;99.90;;;;;;5110015;28;20040;-77
2021/12/16 14:41:38;;;;;;;28.27;8.30;;;7.80;99.90;;;;;;5110890;28;20146;-77
2021/12/16 14:46:46;;;;;;;39.05;11.15;;;7.80;99.90;;;;;;5111790;28;20079;-77
2021/12/16 14:49:12;;;;;;;123.03;13.77;;;7.80;99.90;;;;;;5114413;28;20054;-77
2021/12/16 14:51:38;;;;;;;21.38;9.18;;;7.70;99.90;;;;;;5114345;28;20031;-77
2021/12/16 14:54:04;;;;;;;17.92;7.95;;;7.80;99.90;;;;;;5114228;28;20127;-77
2021/12/16 14:56:40;;;;;;;81.55;11.68;;;7.80;99.90;;;;;;5115220;28;20036;-77
2021/12/16 14:59:11;;;;;;;27.38;8.40;;;7.80;99.90;;;;;;5115519;28;20172;-77
2021/12/16 15:01:40;;;;;;;23.08;9.00;;;7.70;99.90;;;;;;5114137;28;20035;-77
2021/12/16 15:04:09;;;;;;;41.25;9.45;;;7.70;99.90;;;;;;5114301;28;20039;-76
2021/12/16 15:06:45;;;;;;;112.55;14.95;;;7.70;99.90;;;;;;5113818;28;20246;-75
2021/12/16 15:09:20;;;;;;;28.80;8.55;;;7.80;99.90;;;;;;5113843;28;20047;-75
2021/12/16 15:11:58;;;;;;;31.08;9.45;;;7.80;99.90;;;;;;5115187;28;20071;-76
2021/12/16 15:36:31;;;;;;;30.83;9.35;;;7.80;99.90;;;;;;5092773;28;20040;-80
2021/12/16 15:39:07;;;;;;;20.45;8.77;;;7.90;99.90;;;;;;5104713;28;20585;-79
2021/12/16 15:44:16;;;;;;;25.27;8.45;;;7.90;99.90;;;;;;5092902;28;20058;-80
2021/12/16 15:46:42;;;;;;;62.53;9.95;;;7.90;99.90;;;;;;5098508;28;20095;-80
2021/12/16 15:49:08;;;;;;;19.70;8.60;;;7.90;99.90;;;;;;5098609;28;20094;-79
2021/12/16 15:51:35;;;;;;;36.40;8.52;;;8.00;99.90;;;;;;5099943;28;20046;-80
2021/12/16 15:54:02;;;;;;;22.80;8.77;;;8.00;99.90;;;;;;5100810;28;20385;-80
2021/12/16 15:56:35;;;;;;;19.30;7.85;;;8.00;99.90;;;;;;5102863;28;20059;-79
2021/12/16 15:59:06;;;;;;;20.88;8.48;;;8.10;99.90;;;;;;5101176;28;20423;-80
2021/12/16 16:01:48;;;;;;;22.08;8.48;;;8.10;99.90;;;;;;5101767;28;20048;-80
2021/12/16 16:04:17;;;;;;;;;;;8.10;99.90;;;;;;5103220;28;20040;-80
2021/12/16 16:06:47;;;;;;;23.55;7.38;;;8.10;99.90;;;;;;5085050;28;19977;-80
2021/12/16 16:09:15;;;;;;;19.70;8.10;;;8.10;99.90;;;;;;5101577;28;20051;-80
2021/12/16 16:11:50;;;;;;;55.13;10.25;;;8.20;99.90;;;;;;5101990;28;20040;-80
2021/12/16 16:14:17;;;;;;;28.17;9.38;;;8.20;99.90;;;;;;5101662;28;20095;-80
2021/12/16 16:16:49;;;;;;;21.75;8.07;;;8.20;99.90;;;;;;5097858;28;20044;-80
2021/12/16 16:19:16;;;;;;;;;;;8.20;99.90;;;;;;5097986;28;20149;-80
2021/12/16 16:21:48;;;;;;;23.80;9.02;;;8.20;99.90;;;;;;5097126;28;19916;-80
2021/12/16 16:24:35;;;;;;;49.92;11.20;;;8.20;99.90;;;;;;5098666;28;20051;-80
2021/12/16 16:27:09;;;;;;;31.83;9.50;;;8.30;99.90;;;;;;5096404;28;20048;-80
2021/12/16 16:29:36;;;;;;;21.05;8.93;;;8.30;99.90;;;;;;5097326;28;20044;-80
2021/12/16 16:32:03;;;;;;;24.30;8.63;;;8.20;99.90;;;;;;5101575;28;20100;-80
2021/12/16 16:34:43;;;;;;;23.70;8.43;;;8.20;99.90;;;;;;5106734;28;20061;-80